Terminal Aerodrome Forecast
Issued by NWS Wichita, KS

Home | Current Version | Previous Version | Text Only | Print | Product List | Glossary On
Versions: 1 2 3 4 5 6 7 8 9 10 11 12 13 14 15 16 17 18 19
356
FTUS43 KICT 191143
TAFICT
TAF
KICT 191143Z 1912/2012 07009KT P6SM VCSH BKN080
     FM191400 12011KT P6SM SCT100
     FM191800 17015KT P6SM SCT050
     FM192100 18013KT P6SM VCTS BKN050CB
     FM200200 33012KT P6SM VCTS BKN050CB=

USA.gov is the U.S. government's official web portal to all federal, state and local government web resources and services.